Time;durP1;ratioP1;P1;durP2;ratioP2;P2;SDS_P1;SDS_P2;PMS_P1;PMS_P2;Temp;Humidity;BMP_temperature;BMP_pressure;BME280_temperature;BME280_humidity;BME280_pressure;Samples;Min_cycle;Max_cycle;Signal;HPM_P1;HPM_P2
2021/01/14 06:01:51;;;;;;;;;;;;;;;;;;5080953;28;20409;-58
2021/01/14 06:04:19;;;;;;;0.10;0.10;;;;;;;;;;5084499;28;19912;-58
2021/01/14 06:06:46;;;;;;;0.03;0.00;;;;;;;;;;5085603;28;20035;-58
2021/01/14 06:09:12;;;;;;;0.50;0.50;;;;;;;;;;5082301;28;20676;-58
2021/01/14 06:11:39;;;;;;;6.30;0.38;;;;;;;;;;5085947;28;20051;-58
2021/01/14 06:14:05;;;;;;;0.40;0.20;;;;;;;;;;5074817;28;20528;-58
2021/01/14 06:16:47;;;;;;;0.00;0.00;;;;;;;;;;5071886;28;20130;-58
2021/01/14 06:19:14;;;;;;;0.00;0.00;;;;;;;;;;5071813;28;20082;-58
2021/01/14 06:21:44;;;;;;;0.05;0.00;;;;;;;;;;5069859;28;20024;-58
2021/01/14 06:24:29;;;;;;;0.50;0.32;;;;;;;;;;5069397;28;20033;-58
2021/01/14 06:26:59;;;;;;;0.47;0.10;;;;;;;;;;5083770;28;20028;-58
2021/01/14 06:29:26;;;;;;;2.65;0.55;;;;;;;;;;5080656;28;20493;-58
2021/01/14 06:31:52;;;;;;;3.78;1.20;;;;;;;;;;5076197;28;20035;-58
2021/01/14 06:34:22;;;;;;;0.00;0.00;;;;;;;;;;5072178;28;20025;-58
2021/01/14 06:36:49;;;;;;;0.00;0.00;;;;;;;;;;5070942;28;20042;-59
2021/01/14 06:39:16;;;;;;;2.03;1.88;;;;;;;;;;5068483;28;20025;-58
2021/01/14 06:41:43;;;;;;;0.00;0.00;;;;;;;;;;5071845;28;20032;-58
2021/01/14 06:44:10;;;;;;;0.00;0.00;;;;;;;;;;5072190;28;20029;-58
2021/01/14 06:46:37;;;;;;;0.32;0.32;;;;;;;;;;5072342;28;20028;-58
2021/01/14 06:49:03;;;;;;;0.55;0.08;;;;;;;;;;5082367;28;20031;-58
2021/01/14 06:51:46;;;;;;;0.47;0.30;;;;;;;;;;5068100;28;20031;-58
2021/01/14 06:54:13;;;;;;;1.35;0.45;;;;;;;;;;5068499;28;20064;-58
2021/01/14 06:57:08;;;;;;;8.00;1.55;;;;;;;;;;5071816;28;20229;-58
2021/01/14 06:59:38;;;;;;;1.60;0.93;;;;;;;;;;5074359;28;20039;-58
2021/01/14 07:02:07;;;;;;;0.00;0.00;;;;;;;;;;5072132;28;20028;-58
2021/01/14 07:04:45;;;;;;;0.38;0.30;;;;;;;;;;5067801;28;20125;-59
2021/01/14 07:07:26;;;;;;;0.05;0.05;;;;;;;;;;5068252;28;20370;-58
2021/01/14 07:10:09;;;;;;;0.05;0.05;;;;;;;;;;5069631;28;20036;-58
2021/01/14 07:12:36;;;;;;;0.30;0.30;;;;;;;;;;5053212;28;20045;-58
2021/01/14 07:15:07;;;;;;;5.13;0.70;;;;;;;;;;5072382;28;20033;-61
2021/01/14 07:17:34;;;;;;;1.48;0.40;;;;;;;;;;5070702;28;20047;-58
2021/01/14 07:20:01;;;;;;;0.30;0.20;;;;;;;;;;5059171;28;20040;-58
2021/01/14 07:22:30;;;;;;;0.10;0.10;;;;;;;;;;5059617;28;20063;-57
2021/01/14 07:24:58;;;;;;;0.00;0.00;;;;;;;;;;5067361;28;20115;-58
2021/01/14 07:27:24;;;;;;;0.20;0.10;;;;;;;;;;5069843;28;20039;-58
2021/01/14 07:29:50;;;;;;;0.43;0.43;;;;;;;;;;5069077;28;20029;-58
2021/01/14 07:32:16;;;;;;;3.42;0.45;;;;;;;;;;5068291;28;20024;-58
2021/01/14 07:34:44;;;;;;;0.25;0.25;;;;;;;;;;5066645;28;20024;-58
2021/01/14 07:37:10;;;;;;;0.17;0.15;;;;;;;;;;5068941;28;20021;-58
2021/01/14 07:39:49;;;;;;;0.00;0.00;;;;;;;;;;5068472;28;20013;-58
2021/01/14 07:42:28;;;;;;;0.00;0.00;;;;;;;;;;5063623;28;20453;-58
2021/01/14 07:45:02;;;;;;;0.00;0.00;;;;;;;;;;5070411;28;20025;-57
2021/01/14 07:47:29;;;;;;;0.13;0.00;;;;;;;;;;5067657;28;20039;-57
2021/01/14 07:49:55;;;;;;;0.10;0.00;;;;;;;;;;5066809;28;20405;-57
2021/01/14 07:52:32;;;;;;;0.00;0.00;;;;;;;;;;5065253;28;20033;-56
2021/01/14 07:55:03;;;;;;;0.00;0.00;;;;;;;;;;5055029;28;20039;-58
2021/01/14 07:57:30;;;;;;;0.28;0.25;;;;;;;;;;5070122;28;20091;-58
2021/01/14 08:00:07;;;;;;;1.05;0.30;;;;;;;;;;5068107;28;20068;-58
2021/01/14 08:02:56;;;;;;;0.43;0.08;;;;;;;;;;5067196;28;20036;-58
2021/01/14 08:05:42;;;;;;;0.00;0.00;;;;;;;;;;5057358;28;20500;-57
2021/01/14 08:08:26;;;;;;;11.75;0.70;;;;;;;;;;5063725;28;20127;-58
2021/01/14 08:11:08;;;;;;;0.00;0.00;;;;;;;;;;5065830;28;20497;-58
2021/01/14 08:13:53;;;;;;;1.60;1.00;;;;;;;;;;5064053;28;20028;-58
2021/01/14 08:16:35;;;;;;;0.00;0.00;;;;;;;;;;5065751;28;20032;-58
2021/01/14 08:19:16;;;;;;;1.63;0.10;;;;;;;;;;5067364;28;20375;-58
2021/01/14 08:21:44;;;;;;;0.20;0.10;;;;;;;;;;5068524;28;20025;-58
2021/01/14 08:24:11;;;;;;;0.00;0.00;;;;;;;;;;5068620;28;20044;-59
2021/01/14 08:26:56;;;;;;;1.25;0.28;;;;;;;;;;5069729;28;20059;-58
2021/01/14 08:29:29;;;;;;;0.15;0.15;;;;;;;;;;5069466;28;20032;-59
2021/01/14 08:31:55;;;;;;;0.00;0.00;;;;;;;;;;5065516;28;20116;-59
2021/01/14 08:34:24;;;;;;;0.82;0.00;;;;;;;;;;5068190;28;20021;-58
2021/01/14 08:36:53;;;;;;;0.00;0.00;;;;;;;;;;5070048;28;20486;-58
2021/01/14 08:39:20;;;;;;;2.03;0.77;;;;;;;;;;5070051;28;20443;-58
2021/01/14 08:41:48;;;;;;;0.10;0.10;;;;;;;;;;5070037;28;20470;-58
2021/01/14 08:44:15;;;;;;;2.17;0.57;;;;;;;;;;5066506;28;20059;-62
2021/01/14 08:46:42;;;;;;;5.18;0.30;;;;;;;;;;5060677;28;20043;-58
2021/01/14 08:49:12;;;;;;;0.00;0.00;;;;;;;;;;5066648;28;20036;-58
2021/01/14 08:51:39;;;;;;;0.45;0.45;;;;;;;;;;5067405;28;20017;-59
2021/01/14 08:54:09;;;;;;;0.00;0.00;;;;;;;;;;5067004;28;20464;-58
2021/01/14 08:56:36;;;;;;;1.90;0.13;;;;;;;;;;5070670;28;20047;-58
2021/01/14 08:59:18;;;;;;;0.00;0.00;;;;;;;;;;5067518;28;20035;-58
2021/01/14 09:01:44;;;;;;;2.50;0.28;;;;;;;;;;5065820;28;20044;-58
2021/01/14 09:04:11;;;;;;;0.00;0.00;;;;;;;;;;5067496;28;20025;-59
2021/01/14 09:06:38;;;;;;;0.00;0.00;;;;;;;;;;5064471;28;20489;-58
2021/01/14 09:09:09;;;;;;;0.00;0.00;;;;;;;;;;5067408;28;20025;-58
2021/01/14 09:11:36;;;;;;;3.83;0.17;;;;;;;;;;5068619;28;20047;-58
2021/01/14 09:14:05;;;;;;;4.47;0.63;;;;;;;;;;5068074;28;20021;-58
2021/01/14 09:16:32;;;;;;;1.00;1.00;;;;;;;;;;5068034;28;20020;-58
2021/01/14 09:18:59;;;;;;;0.88;0.15;;;;;;;;;;5068503;28;20028;-58
2021/01/14 09:21:25;;;;;;;0.22;0.08;;;;;;;;;;5068008;28;20497;-58
2021/01/14 09:23:51;;;;;;;6.20;0.45;;;;;;;;;;5070492;28;20017;-58
2021/01/14 09:26:20;;;;;;;1.83;0.50;;;;;;;;;;5068283;28;20551;-57
2021/01/14 09:28:52;;;;;;;1.63;0.25;;;;;;;;;;5067756;28;20112;-58
2021/01/14 09:31:20;;;;;;;0.00;0.00;;;;;;;;;;5067723;28;20189;-58
2021/01/14 09:33:50;;;;;;;0.00;0.00;;;;;;;;;;5068418;28;20401;-58
2021/01/14 09:36:20;;;;;;;0.00;0.00;;;;;;;;;;5068653;28;20417;-58
2021/01/14 09:38:54;;;;;;;0.45;0.45;;;;;;;;;;5069259;28;20031;-57
2021/01/14 09:41:26;;;;;;;10.15;0.45;;;;;;;;;;5067650;28;20508;-58
2021/01/14 09:43:53;;;;;;;0.00;0.00;;;;;;;;;;5065357;28;20099;-58
2021/01/14 09:46:20;;;;;;;0.05;0.05;;;;;;;;;;5067347;28;20024;-58
2021/01/14 09:48:46;;;;;;;0.30;0.05;;;;;;;;;;5067755;28;20033;-58
2021/01/14 09:51:13;;;;;;;0.88;0.08;;;;;;;;;;5068420;28;20440;-59
2021/01/14 09:53:43;;;;;;;0.00;0.00;;;;;;;;;;5070006;28;20024;-58
2021/01/14 09:56:12;;;;;;;6.65;0.50;;;;;;;;;;5067724;28;20090;-58
2021/01/14 09:58:38;;;;;;;0.00;0.00;;;;;;;;;;5067218;28;20032;-57
2021/01/14 10:01:07;;;;;;;0.70;0.52;;;;;;;;;;5066878;28;20063;-58
2021/01/14 10:03:34;;;;;;;3.35;1.05;;;;;;;;;;5067292;28;20108;-58
2021/01/14 10:06:00;;;;;;;0.03;0.00;;;;;;;;;;5069245;28;20025;-58
2021/01/14 10:08:29;;;;;;;0.00;0.00;;;;;;;;;;5069295;28;20028;-58
2021/01/14 10:10:56;;;;;;;1.40;0.30;;;;;;;;;;5067040;28;20504;-58
2021/01/14 10:13:22;;;;;;;2.33;0.32;;;;;;;;;;5066597;28;20024;-58
2021/01/14 10:15:48;;;;;;;2.95;0.82;;;;;;;;;;5068791;28;20099;-58
2021/01/14 10:18:27;;;;;;;0.10;0.00;;;;;;;;;;5068164;28;20033;-58
2021/01/14 10:21:03;;;;;;;0.80;0.80;;;;;;;;;;5069934;28;20051;-57
2021/01/14 10:23:30;;;;;;;1.00;0.00;;;;;;;;;;5069063;28;20025;-57
2021/01/14 10:25:56;;;;;;;0.55;0.10;;;;;;;;;;5067383;28;20033;-57
2021/01/14 10:28:23;;;;;;;0.00;0.00;;;;;;;;;;5064246;28;20493;-58
2021/01/14 10:30:49;;;;;;;0.00;0.00;;;;;;;;;;5068255;28;20090;-58
2021/01/14 10:33:16;;;;;;;0.00;0.00;;;;;;;;;;5068023;28;20116;-58
2021/01/14 10:35:42;;;;;;;5.53;1.45;;;;;;;;;;5065507;28;20025;-59
2021/01/14 10:38:12;;;;;;;0.25;0.00;;;;;;;;;;5068317;28;20055;-59
2021/01/14 10:40:40;;;;;;;4.45;0.32;;;;;;;;;;5071526;28;20074;-59
2021/01/14 10:43:06;;;;;;;2.53;0.25;;;;;;;;;;5071307;28;20024;-59
2021/01/14 10:45:34;;;;;;;3.03;0.25;;;;;;;;;;5071598;28;20020;-58
2021/01/14 10:48:07;;;;;;;2.28;0.25;;;;;;;;;;5072136;28;20021;-59
2021/01/14 10:50:40;;;;;;;22.65;3.10;;;;;;;;;;5072984;28;20131;-59
2021/01/14 10:53:07;;;;;;;13.02;0.55;;;;;;;;;;5071557;28;20531;-58
2021/01/14 10:55:33;;;;;;;2.63;1.00;;;;;;;;;;5071588;28;20784;-58
2021/01/14 10:58:00;;;;;;;0.00;0.00;;;;;;;;;;5068757;28;20444;-58
2021/01/14 11:00:52;;;;;;;7.85;1.52;;;;;;;;;;5070799;28;20040;-58
2021/01/14 11:03:21;;;;;;;0.00;0.00;;;;;;;;;;5069955;28;20128;-59
2021/01/14 11:05:48;;;;;;;1.13;0.00;;;;;;;;;;5073000;28;20494;-59
2021/01/14 11:08:14;;;;;;;0.17;0.17;;;;;;;;;;5071244;28;20021;-58
2021/01/14 11:10:41;;;;;;;0.52;0.40;;;;;;;;;;5070593;28;20159;-58
2021/01/14 11:13:11;;;;;;;1.40;0.20;;;;;;;;;;5070517;28;20170;-59
2021/01/14 11:15:38;;;;;;;0.98;0.08;;;;;;;;;;5071015;28;20029;-58
2021/01/14 11:18:04;;;;;;;0.00;0.00;;;;;;;;;;5069328;28;20397;-58
2021/01/14 11:20:31;;;;;;;0.47;0.20;;;;;;;;;;5070856;28;20190;-58
2021/01/14 11:22:57;;;;;;;0.00;0.00;;;;;;;;;;5068698;28;20024;-59
2021/01/14 11:25:23;;;;;;;1.88;0.00;;;;;;;;;;5069005;28;20036;-59
2021/01/14 11:27:50;;;;;;;3.72;0.20;;;;;;;;;;5070638;28;20028;-59
2021/01/14 11:30:16;;;;;;;0.00;0.00;;;;;;;;;;5070872;28;20529;-59
2021/01/14 11:32:43;;;;;;;0.55;0.55;;;;;;;;;;5070387;28;20017;-58
2021/01/14 11:35:09;;;;;;;0.00;0.00;;;;;;;;;;5068906;28;20497;-58
2021/01/14 11:37:35;;;;;;;0.80;0.65;;;;;;;;;;5065953;28;20024;-58
2021/01/14 11:40:01;;;;;;;0.45;0.00;;;;;;;;;;5069412;28;20452;-58
2021/01/14 11:42:31;;;;;;;1.88;0.40;;;;;;;;;;5069165;28;20055;-58
2021/01/14 11:44:57;;;;;;;0.93;0.10;;;;;;;;;;5070190;28;20024;-59
2021/01/14 11:47:23;;;;;;;5.13;1.00;;;;;;;;;;5069558;28;20512;-59
2021/01/14 11:49:49;;;;;;;4.65;0.35;;;;;;;;;;5068733;28;20028;-59
2021/01/14 11:52:15;;;;;;;0.00;0.00;;;;;;;;;;5068010;28;20036;-59
2021/01/14 11:54:42;;;;;;;0.80;0.03;;;;;;;;;;5069995;28;20103;-59
2021/01/14 11:57:09;;;;;;;0.10;0.00;;;;;;;;;;5069087;28;20455;-59
2021/01/14 11:59:35;;;;;;;9.98;0.88;;;;;;;;;;5069529;28;20036;-59
2021/01/14 12:02:01;;;;;;;2.53;1.23;;;;;;;;;;5069283;28;20410;-59
2021/01/14 12:04:27;;;;;;;0.10;0.10;;;;;;;;;;5067862;28;20029;-59
2021/01/14 12:06:53;;;;;;;0.00;0.00;;;;;;;;;;5070259;28;20033;-58
2021/01/14 12:09:20;;;;;;;0.28;0.28;;;;;;;;;;5067777;28;20032;-59
2021/01/14 12:11:46;;;;;;;2.22;1.00;;;;;;;;;;5069736;28;20541;-58
2021/01/14 12:14:12;;;;;;;0.85;0.05;;;;;;;;;;5067873;28;20111;-59
2021/01/14 12:16:39;;;;;;;0.90;0.30;;;;;;;;;;5067844;28;20036;-58
2021/01/14 12:19:05;;;;;;;6.07;0.55;;;;;;;;;;5066668;28;20025;-59
2021/01/14 12:21:31;;;;;;;7.57;0.85;;;;;;;;;;5066241;28;20059;-59
2021/01/14 12:23:57;;;;;;;4.30;0.43;;;;;;;;;;5068110;28;20398;-58
2021/01/14 12:26:23;;;;;;;0.10;0.10;;;;;;;;;;5068742;28;20577;-58
2021/01/14 12:28:49;;;;;;;8.05;0.75;;;;;;;;;;5067864;28;20036;-58
2021/01/14 12:31:15;;;;;;;8.30;1.08;;;;;;;;;;5067743;28;20387;-58
2021/01/14 12:33:41;;;;;;;0.90;0.60;;;;;;;;;;5067512;28;20748;-58
2021/01/14 12:36:07;;;;;;;2.50;1.02;;;;;;;;;;5067180;28;20059;-58
2021/01/14 12:38:34;;;;;;;23.80;2.08;;;;;;;;;;5068321;28;20047;-58
2021/01/14 12:41:00;;;;;;;1.90;0.85;;;;;;;;;;5066844;28;20098;-58
2021/01/14 12:43:26;;;;;;;5.97;0.52;;;;;;;;;;5067932;28;20016;-58
2021/01/14 12:45:52;;;;;;;0.00;0.00;;;;;;;;;;5068801;28;20070;-58
2021/01/14 12:48:21;;;;;;;2.28;1.20;;;;;;;;;;5068687;28;20026;-58
2021/01/14 12:50:48;;;;;;;0.93;0.50;;;;;;;;;;5068748;28;20503;-57
2021/01/14 12:53:14;;;;;;;0.10;0.10;;;;;;;;;;5066389;28;20502;-58
2021/01/14 12:55:40;;;;;;;14.23;0.63;;;;;;;;;;5066643;28;20086;-57
2021/01/14 12:58:06;;;;;;;2.60;0.35;;;;;;;;;;5066393;28;20581;-58
2021/01/14 13:00:33;;;;;;;0.10;0.10;;;;;;;;;;5065904;28;20081;-58
2021/01/14 13:02:59;;;;;;;4.18;0.63;;;;;;;;;;5066099;28;20032;-57
2021/01/14 13:05:25;;;;;;;5.70;0.85;;;;;;;;;;5069390;28;20503;-58
2021/01/14 13:07:51;;;;;;;0.10;0.10;;;;;;;;;;5066721;28;20024;-58
2021/01/14 13:10:17;;;;;;;6.35;0.82;;;;;;;;;;5065730;28;20871;-58
2021/01/14 13:12:43;;;;;;;0.40;0.20;;;;;;;;;;5067839;28;20059;-58
2021/01/14 13:15:09;;;;;;;23.00;1.55;;;;;;;;;;5067929;28;20020;-58
2021/01/14 13:17:35;;;;;;;3.88;0.98;;;;;;;;;;5069406;28;20032;-57
2021/01/14 13:20:02;;;;;;;0.63;0.20;;;;;;;;;;5068572;28;20046;-58
2021/01/14 13:22:28;;;;;;;13.18;1.10;;;;;;;;;;5067910;28;20452;-58
2021/01/14 13:24:54;;;;;;;0.80;0.50;;;;;;;;;;5067560;28;20136;-58
2021/01/14 13:27:20;;;;;;;5.13;0.60;;;;;;;;;;5067095;28;20025;-58
2021/01/14 13:29:46;;;;;;;0.30;0.30;;;;;;;;;;5069400;28;20036;-58
2021/01/14 13:32:12;;;;;;;0.70;0.50;;;;;;;;;;5066362;28;20116;-58
2021/01/14 13:34:38;;;;;;;5.00;1.05;;;;;;;;;;5068130;28;20435;-58
2021/01/14 13:37:05;;;;;;;2.33;0.60;;;;;;;;;;5065898;28;20024;-59
2021/01/14 13:39:32;;;;;;;0.25;0.20;;;;;;;;;;5065892;28;20021;-58
2021/01/14 13:41:58;;;;;;;12.02;0.70;;;;;;;;;;5067599;28;20385;-58
2021/01/14 13:44:24;;;;;;;5.72;1.02;;;;;;;;;;5067853;28;20029;-58
2021/01/14 13:46:51;;;;;;;3.28;1.00;;;;;;;;;;5067760;28;20070;-58
2021/01/14 13:49:18;;;;;;;1.50;0.40;;;;;;;;;;5066717;28;20036;-57
2021/01/14 13:51:47;;;;;;;7.50;1.15;;;;;;;;;;5065595;28;20119;-57
2021/01/14 13:54:13;;;;;;;0.93;0.35;;;;;;;;;;5066763;28;20024;-58
2021/01/14 13:56:39;;;;;;;1.60;0.70;;;;;;;;;;5068728;28;20393;-58
2021/01/14 13:59:06;;;;;;;0.15;0.15;;;;;;;;;;5066981;28;20024;-57
2021/01/14 14:01:33;;;;;;;10.25;3.28;;;;;;;;;;5064485;28;20513;-57
2021/01/14 14:04:00;;;;;;;0.38;0.38;;;;;;;;;;5067539;28;20025;-58
2021/01/14 14:06:33;;;;;;;5.53;0.28;;;;;;;;;;5066912;28;20028;-58
2021/01/14 14:08:59;;;;;;;8.40;1.30;;;;;;;;;;5067395;28;20482;-57
2021/01/14 14:11:26;;;;;;;2.67;0.68;;;;;;;;;;5068948;28;20090;-57
2021/01/14 14:13:52;;;;;;;0.57;0.50;;;;;;;;;;5068596;28;20028;-58
2021/01/14 14:16:18;;;;;;;2.72;0.50;;;;;;;;;;5071102;28;20048;-57
2021/01/14 14:18:45;;;;;;;0.52;0.50;;;;;;;;;;5072251;28;20025;-58
2021/01/14 14:21:14;;;;;;;2.40;0.70;;;;;;;;;;5070985;28;20023;-58
2021/01/14 14:23:40;;;;;;;3.70;0.82;;;;;;;;;;5071862;28;20048;-56
2021/01/14 14:26:06;;;;;;;8.30;1.33;;;;;;;;;;5069027;28;20032;-57
2021/01/14 14:28:33;;;;;;;1.10;0.47;;;;;;;;;;5068726;28;20029;-58
2021/01/14 14:30:59;;;;;;;0.40;0.40;;;;;;;;;;5070662;28;20040;-57
2021/01/14 14:33:25;;;;;;;0.30;0.30;;;;;;;;;;5068931;28;20737;-58
2021/01/14 14:35:51;;;;;;;3.55;2.10;;;;;;;;;;5068727;28;20068;-58
2021/01/14 14:38:17;;;;;;;0.13;0.10;;;;;;;;;;5068371;28;20583;-58
2021/01/14 14:40:44;;;;;;;0.75;0.20;;;;;;;;;;5068986;28;20025;-58
2021/01/14 14:43:10;;;;;;;4.53;1.23;;;;;;;;;;5069738;28;20078;-57
2021/01/14 14:45:36;;;;;;;1.73;0.82;;;;;;;;;;5070740;28;20086;-58
2021/01/14 14:48:02;;;;;;;0.10;0.10;;;;;;;;;;5069539;28;20024;-58
2021/01/14 14:50:28;;;;;;;7.13;1.25;;;;;;;;;;5070368;28;20033;-56
2021/01/14 14:52:54;;;;;;;6.13;0.57;;;;;;;;;;5068544;28;20074;-58
2021/01/14 14:55:26;;;;;;;10.52;1.67;;;;;;;;;;5065917;28;20041;-58
2021/01/14 14:57:52;;;;;;;0.45;0.38;;;;;;;;;;5070550;28;20028;-57
2021/01/14 15:00:19;;;;;;;6.50;2.05;;;;;;;;;;5067789;28;20064;-57
2021/01/14 15:02:45;;;;;;;0.73;0.22;;;;;;;;;;5072670;28;20025;-57
2021/01/14 15:05:11;;;;;;;6.60;0.73;;;;;;;;;;5068529;28;20020;-57
2021/01/14 15:07:37;;;;;;;11.43;1.80;;;;;;;;;;5068723;28;20048;-56
2021/01/14 15:10:04;;;;;;;1.45;0.10;;;;;;;;;;5069704;28;20036;-58
2021/01/14 15:12:31;;;;;;;3.05;1.60;;;;;;;;;;5069541;28;20031;-58
2021/01/14 15:14:57;;;;;;;0.88;0.63;;;;;;;;;;5069718;28;20020;-57
2021/01/14 15:17:23;;;;;;;3.78;1.15;;;;;;;;;;5068281;28;20032;-57
2021/01/14 15:19:49;;;;;;;0.30;0.30;;;;;;;;;;5067602;28;20029;-57
2021/01/14 15:22:15;;;;;;;1.55;0.17;;;;;;;;;;5066788;28;20394;-57
2021/01/14 15:24:42;;;;;;;2.90;0.80;;;;;;;;;;5070079;28;20020;-57
2021/01/14 15:27:08;;;;;;;6.65;1.45;;;;;;;;;;5069204;28;20036;-57
2021/01/14 15:29:34;;;;;;;0.17;0.17;;;;;;;;;;5070605;28;20113;-59
2021/01/14 15:32:00;;;;;;;10.88;1.02;;;;;;;;;;5070396;28;20036;-57
2021/01/14 15:34:27;;;;;;;0.10;0.10;;;;;;;;;;5070855;28;20095;-58
2021/01/14 15:36:53;;;;;;;7.22;0.45;;;;;;;;;;5070673;28;20404;-57
2021/01/14 15:39:19;;;;;;;2.25;2.05;;;;;;;;;;5071015;28;20029;-60
2021/01/14 15:41:45;;;;;;;10.63;1.83;;;;;;;;;;5068756;28;20062;-58
2021/01/14 15:44:11;;;;;;;3.95;1.55;;;;;;;;;;5060715;28;20048;-58
2021/01/14 15:46:37;;;;;;;2.17;0.60;;;;;;;;;;5062520;28;20108;-57
2021/01/14 15:49:03;;;;;;;3.95;1.40;;;;;;;;;;5066646;28;20033;-59
2021/01/14 15:51:29;;;;;;;3.92;1.15;;;;;;;;;;5067765;28;20060;-58
2021/01/14 15:53:56;;;;;;;6.72;1.00;;;;;;;;;;5070434;28;20028;-59
2021/01/14 15:56:26;;;;;;;17.85;1.40;;;;;;;;;;5066251;28;20025;-58
2021/01/14 15:58:52;;;;;;;2.10;0.43;;;;;;;;;;5065527;28;20035;-58
2021/01/14 16:01:18;;;;;;;9.55;0.30;;;;;;;;;;5064406;28;20052;-59
2021/01/14 16:03:44;;;;;;;2.20;0.68;;;;;;;;;;5066076;28;20516;-59
2021/01/14 16:06:10;;;;;;;4.97;1.00;;;;;;;;;;5069692;28;20055;-59
2021/01/14 16:08:36;;;;;;;0.10;0.10;;;;;;;;;;5070016;28;20129;-59
2021/01/14 16:11:03;;;;;;;1.35;0.60;;;;;;;;;;5067531;28;20040;-59
2021/01/14 16:13:29;;;;;;;11.13;2.10;;;;;;;;;;5067514;28;20031;-59
2021/01/14 16:15:55;;;;;;;0.10;0.10;;;;;;;;;;5067398;28;20025;-59
2021/01/14 16:18:21;;;;;;;1.52;0.93;;;;;;;;;;5069331;28;20033;-59
2021/01/14 16:20:53;;;;;;;2.30;0.40;;;;;;;;;;5067510;28;20116;-58
2021/01/14 16:23:19;;;;;;;0.15;0.15;;;;;;;;;;5070108;28;20406;-57
2021/01/14 16:25:45;;;;;;;1.45;0.60;;;;;;;;;;5069978;28;20059;-58
2021/01/14 16:28:11;;;;;;;6.05;2.25;;;;;;;;;;5069620;28;20394;-58
2021/01/14 16:30:37;;;;;;;1.67;0.55;;;;;;;;;;5069089;28;20060;-60
2021/01/14 16:33:03;;;;;;;3.40;1.80;;;;;;;;;;5070003;28;20078;-59
2021/01/14 16:35:29;;;;;;;6.50;1.33;;;;;;;;;;5066577;28;20032;-60
2021/01/14 16:37:55;;;;;;;0.38;0.38;;;;;;;;;;5069398;28;20158;-57
2021/01/14 16:40:21;;;;;;;8.68;0.98;;;;;;;;;;5070006;28;20036;-59
2021/01/14 16:42:48;;;;;;;7.25;1.35;;;;;;;;;;5068893;28;20025;-58
2021/01/14 16:45:14;;;;;;;1.85;0.70;;;;;;;;;;5069595;28;20031;-58
2021/01/14 16:47:40;;;;;;;9.60;1.08;;;;;;;;;;5070758;28;20025;-59
2021/01/14 16:50:06;;;;;;;0.50;0.30;;;;;;;;;;5069526;28;20134;-57
2021/01/14 16:52:36;;;;;;;0.38;0.20;;;;;;;;;;5069732;28;20029;-59
2021/01/14 16:55:02;;;;;;;1.20;0.82;;;;;;;;;;5069552;28;20529;-59
2021/01/14 16:57:28;;;;;;;4.15;1.25;;;;;;;;;;5062328;28;20020;-59
2021/01/14 16:59:54;;;;;;;3.60;0.63;;;;;;;;;;5067962;28;20051;-66
2021/01/14 17:02:20;;;;;;;2.22;0.55;;;;;;;;;;5056256;28;20035;-59
2021/01/14 17:04:46;;;;;;;10.93;1.95;;;;;;;;;;5056109;28;20071;-58
2021/01/14 17:07:13;;;;;;;0.32;0.30;;;;;;;;;;5051220;28;20493;-60
2021/01/14 17:09:39;;;;;;;6.25;0.45;;;;;;;;;;5050892;28;20024;-60
2021/01/14 17:12:05;;;;;;;7.95;1.35;;;;;;;;;;5048820;28;20032;-61
2021/01/14 17:14:32;;;;;;;5.05;0.93;;;;;;;;;;5050902;28;20021;-60
2021/01/14 17:17:00;;;;;;;4.68;1.55;;;;;;;;;;5049600;28;20529;-60
2021/01/14 17:19:26;;;;;;;0.73;0.73;;;;;;;;;;5056142;28;20021;-60
2021/01/14 17:21:54;;;;;;;2.38;0.65;;;;;;;;;;5061517;28;20548;-60
2021/01/14 17:24:20;;;;;;;3.28;0.80;;;;;;;;;;5054946;28;20105;-60
2021/01/14 17:26:46;;;;;;;4.70;0.70;;;;;;;;;;5061319;28;20039;-60
2021/01/14 17:29:12;;;;;;;0.13;0.13;;;;;;;;;;5060031;28;20036;-60
2021/01/14 17:31:39;;;;;;;0.22;0.22;;;;;;;;;;5061135;28;20045;-60
2021/01/14 17:34:05;;;;;;;1.17;0.90;;;;;;;;;;5061714;28;20021;-60
2021/01/14 17:36:31;;;;;;;19.38;1.40;;;;;;;;;;5053279;28;20082;-60
2021/01/14 17:38:57;;;;;;;1.80;1.75;;;;;;;;;;5056775;28;20082;-60
2021/01/14 17:41:24;;;;;;;0.20;0.10;;;;;;;;;;5060546;28;20557;-60
2021/01/14 17:43:51;;;;;;;6.40;0.95;;;;;;;;;;5058058;28;20021;-59
2021/01/14 17:46:18;;;;;;;2.78;0.75;;;;;;;;;;5060920;28;20107;-60
2021/01/14 17:48:48;;;;;;;3.10;1.20;;;;;;;;;;5059431;28;20783;-60
2021/01/14 17:51:21;;;;;;;4.90;1.30;;;;;;;;;;5051223;28;20040;-58
2021/01/14 17:53:47;;;;;;;10.10;1.08;;;;;;;;;;5056245;28;20461;-60
2021/01/14 17:56:21;;;;;;;6.72;1.00;;;;;;;;;;5053603;28;20017;-60
2021/01/14 17:58:48;;;;;;;2.05;0.57;;;;;;;;;;5051322;28;20055;-59
2021/01/14 18:01:14;;;;;;;6.57;0.63;;;;;;;;;;5048932;28;20056;-60
2021/01/14 18:03:41;;;;;;;1.45;0.68;;;;;;;;;;5048362;28;20017;-60
2021/01/14 18:06:08;;;;;;;2.38;1.05;;;;;;;;;;5059667;28;20042;-59
2021/01/14 18:08:34;;;;;;;0.38;0.35;;;;;;;;;;5059033;28;20557;-60
2021/01/14 18:11:00;;;;;;;0.22;0.22;;;;;;;;;;5062182;28;20028;-60
2021/01/14 18:13:27;;;;;;;0.28;0.28;;;;;;;;;;5061371;28;20050;-60
2021/01/14 18:15:53;;;;;;;7.32;1.15;;;;;;;;;;5064439;28;20520;-59
2021/01/14 18:18:21;;;;;;;1.80;1.25;;;;;;;;;;5061894;28;20040;-59
2021/01/14 18:20:50;;;;;;;3.95;0.60;;;;;;;;;;5074629;28;20375;-60
2021/01/14 18:23:16;;;;;;;3.75;0.63;;;;;;;;;;5066725;28;20532;-60
2021/01/14 18:25:43;;;;;;;4.93;0.85;;;;;;;;;;5067072;28;20048;-60
2021/01/14 18:28:09;;;;;;;0.25;0.22;;;;;;;;;;5066416;28;20027;-59
2021/01/14 18:30:35;;;;;;;8.68;1.73;;;;;;;;;;5066214;28;20045;-60
2021/01/14 18:33:02;;;;;;;7.10;1.85;;;;;;;;;;5068119;28;20036;-60
2021/01/14 18:35:28;;;;;;;7.28;0.82;;;;;;;;;;5069460;28;20043;-59
2021/01/14 18:37:54;;;;;;;13.18;0.90;;;;;;;;;;5066776;28;20496;-59
2021/01/14 18:40:20;;;;;;;8.18;0.73;;;;;;;;;;5066370;28;20040;-59
2021/01/14 18:42:47;;;;;;;10.65;0.85;;;;;;;;;;5068361;28;20028;-58
2021/01/14 18:45:14;;;;;;;3.65;0.95;;;;;;;;;;5068635;28;20033;-59
2021/01/14 18:47:41;;;;;;;6.47;1.65;;;;;;;;;;5068773;28;20024;-59
2021/01/14 18:50:11;;;;;;;0.57;0.57;;;;;;;;;;5066506;28;20553;-59
2021/01/14 18:52:46;;;;;;;5.80;0.80;;;;;;;;;;5066693;28;20020;-58
2021/01/14 18:55:14;;;;;;;0.85;0.30;;;;;;;;;;5066637;28;20439;-60
2021/01/14 18:57:40;;;;;;;1.38;0.30;;;;;;;;;;5068162;28;20021;-59
2021/01/14 19:00:07;;;;;;;2.80;0.65;;;;;;;;;;5072031;28;20063;-59
2021/01/14 19:02:34;;;;;;;3.45;1.00;;;;;;;;;;5065126;28;20033;-59
2021/01/14 19:05:00;;;;;;;2.75;0.52;;;;;;;;;;5069061;28;20143;-59
2021/01/14 19:07:26;;;;;;;0.20;0.17;;;;;;;;;;5067629;28;20035;-59
2021/01/14 19:09:52;;;;;;;4.05;1.15;;;;;;;;;;5065781;28;20100;-59
2021/01/14 19:12:18;;;;;;;0.10;0.10;;;;;;;;;;5068751;28;20071;-59
2021/01/14 19:14:44;;;;;;;0.10;0.10;;;;;;;;;;5069053;28;20056;-58
2021/01/14 19:17:10;;;;;;;6.45;0.68;;;;;;;;;;5069950;28;20033;-61
2021/01/14 19:19:37;;;;;;;1.55;0.80;;;;;;;;;;5068575;28;20138;-59
2021/01/14 19:22:03;;;;;;;0.77;0.35;;;;;;;;;;5066565;28;20037;-57
2021/01/14 19:24:29;;;;;;;5.07;1.33;;;;;;;;;;5068143;28;20035;-59
2021/01/14 19:26:56;;;;;;;0.45;0.45;;;;;;;;;;5073128;28;20028;-59
2021/01/14 19:29:22;;;;;;;0.30;0.30;;;;;;;;;;5072729;28;20032;-58
2021/01/14 19:31:49;;;;;;;1.27;0.60;;;;;;;;;;5069124;28;20032;-59
2021/01/14 19:34:15;;;;;;;4.75;0.55;;;;;;;;;;5068783;28;20060;-59
2021/01/14 19:36:41;;;;;;;0.10;0.10;;;;;;;;;;5066724;28;20025;-59
2021/01/14 19:39:07;;;;;;;0.63;0.63;;;;;;;;;;5068060;28;20024;-59
2021/01/14 19:41:35;;;;;;;2.83;0.20;;;;;;;;;;5070034;28;20032;-58
2021/01/14 19:44:02;;;;;;;3.22;0.57;;;;;;;;;;5069240;28;20028;-59
2021/01/14 19:46:29;;;;;;;11.82;1.25;;;;;;;;;;5070467;28;20047;-59
2021/01/14 19:48:55;;;;;;;0.77;0.30;;;;;;;;;;5069304;28;20028;-59
2021/01/14 19:51:21;;;;;;;0.22;0.17;;;;;;;;;;5070000;28;20033;-60
2021/01/14 19:53:47;;;;;;;5.47;0.77;;;;;;;;;;5071926;28;20021;-58
2021/01/14 19:56:13;;;;;;;0.70;0.40;;;;;;;;;;5066937;28;20028;-59
2021/01/14 19:58:39;;;;;;;5.75;0.65;;;;;;;;;;5067735;28;20490;-58
2021/01/14 20:01:06;;;;;;;0.10;0.10;;;;;;;;;;5067687;28;20504;-59
2021/01/14 20:03:32;;;;;;;2.38;0.40;;;;;;;;;;5067879;28;20024;-56
2021/01/14 20:05:58;;;;;;;2.50;0.57;;;;;;;;;;5068517;28;20040;-58
2021/01/14 20:08:25;;;;;;;1.15;1.05;;;;;;;;;;5067815;28;20056;-57
2021/01/14 20:10:51;;;;;;;4.82;0.80;;;;;;;;;;5067219;28;20032;-59
2021/01/14 20:13:17;;;;;;;12.15;1.58;;;;;;;;;;5067716;28;20028;-59
2021/01/14 20:15:44;;;;;;;10.82;1.63;;;;;;;;;;5067900;28;20096;-58
2021/01/14 20:18:10;;;;;;;0.30;0.30;;;;;;;;;;5067746;28;20020;-59
2021/01/14 20:20:37;;;;;;;12.35;3.17;;;;;;;;;;5068421;28;20029;-59
2021/01/14 20:23:03;;;;;;;9.60;2.72;;;;;;;;;;5067172;28;20075;-59
2021/01/14 20:25:29;;;;;;;0.43;0.43;;;;;;;;;;5067563;28;20502;-59
2021/01/14 20:27:55;;;;;;;0.20;0.20;;;;;;;;;;5067894;28;20111;-56
2021/01/14 20:30:21;;;;;;;2.05;0.77;;;;;;;;;;5067044;28;20032;-57
2021/01/14 20:32:47;;;;;;;0.70;0.35;;;;;;;;;;5069612;28;20028;-57
2021/01/14 20:35:13;;;;;;;3.50;0.40;;;;;;;;;;5066542;28;20028;-58
2021/01/14 20:37:40;;;;;;;0.20;0.20;;;;;;;;;;5066546;28;20128;-58
2021/01/14 20:40:07;;;;;;;3.63;0.28;;;;;;;;;;5066927;28;20034;-57
2021/01/14 20:42:36;;;;;;;8.43;0.80;;;;;;;;;;5069072;28;20552;-58
2021/01/14 20:45:04;;;;;;;0.10;0.10;;;;;;;;;;5070949;28;20451;-59
2021/01/14 20:47:30;;;;;;;3.20;1.27;;;;;;;;;;5070436;28;20481;-59